Thunder radar more information blitzortung!


Radar de pluja more information rain snow radar


Visita la nostra xarxa de llocs de meteo:

Template documentation
and downloads

And another site



No particular awareness of the weather is required.    There are no Weather-warnings

Pagina Historial Weather Underground text

Diari Resum May 14, 2017 Unitats:  Mètric    Imperial   Tant
« Previous Dia
SegĂźent Dia »
Diari Setmana Mensual Anual Personalitzada
  Maxima: Minima: Media:
Temperatura: 24.6 °C 13.8 °C 20.6 °C
Punt de rosada: 12.2 °C 7.6 °C 10.4 °C
Humitat: 73 % 42 % 53 %
Wind Speed: 24.1 km/h 0.0 km/h 7.4 km/h
RĂ fegues de vent: 24.1 km/h - -
Vent:- - ESE
Pression baro: 1027.0 hPa 1018.8 hPa -
Precipitacions: 0.0 mm    
Historical Graphs
 
 
Dades de taula per May 14, 2017
Temps Temperatura Punt de rosada Pression baro Vent Wind Speed RĂ fegues de vent Humitat Rainfall Rate (Hourly)
00:02 17.3 °C 7.6 °C 1018.8 hPa West 3.7 km/h 3.7 km/h 53 % 0.0 mm
00:07 17.3 °C 7.6 °C 1018.8 hPa WNW 3.7 km/h 3.7 km/h 53 % 0.0 mm
03:15 17.2 °C 10.6 °C 1021.9 hPa SE 1.6 km/h 3.2 km/h 65 % 0.0 mm
03:25 16.9 °C 10.1 °C 1021.9 hPa NE 4.8 km/h 4.8 km/h 64 % 0.0 mm
03:35 17.0 °C 10.1 °C 1021.9 hPa NE 1.6 km/h 4.8 km/h 64 % 0.0 mm
03:45 17.1 °C 10.0 °C 1021.9 hPa NNE 3.2 km/h 4.8 km/h 63 % 0.0 mm
03:55 18.2 °C 11.1 °C 1021.9 hPa Calm   4.8 km/h 63 % 0.0 mm
04:05 18.3 °C 10.7 °C 1021.9 hPa NE 3.2 km/h 3.2 km/h 61 % 0.0 mm
04:15 18.4 °C 10.7 °C 1021.9 hPa NE 3.2 km/h 4.8 km/h 61 % 0.0 mm
04:25 19.4 °C 11.2 °C 1022.9 hPa NNE 3.2 km/h 4.8 km/h 59 % 0.0 mm
04:35 18.8 °C 10.9 °C 1022.9 hPa NNE 4.8 km/h 6.4 km/h 60 % 0.0 mm
04:45 19.9 °C 11.7 °C 1022.9 hPa NE 1.6 km/h 6.4 km/h 59 % 0.0 mm
04:55 20.6 °C 12.1 °C 1022.9 hPa NE 1.6 km/h 4.8 km/h 58 % 0.0 mm
05:05 20.9 °C 11.8 °C 1022.9 hPa NE 3.2 km/h 8.0 km/h 56 % 0.0 mm
05:15 20.6 °C 11.5 °C 1022.9 hPa NE 1.6 km/h 4.8 km/h 56 % 0.0 mm
05:25 20.9 °C 11.5 °C 1022.9 hPa NE 4.8 km/h 6.4 km/h 55 % 0.0 mm
05:35 21.9 °C 12.2 °C 1023.9 hPa East 1.6 km/h 3.2 km/h 54 % 0.0 mm
05:45 21.9 °C 11.9 °C 1023.9 hPa ESE 1.6 km/h 6.4 km/h 53 % 0.0 mm
05:55 22.1 °C 11.8 °C 1023.9 hPa East 4.8 km/h 6.4 km/h 52 % 0.0 mm
06:05 21.9 °C 11.6 °C 1022.9 hPa ESE 3.2 km/h 6.4 km/h 52 % 0.0 mm
06:15 21.8 °C 11.5 °C 1022.9 hPa East 4.8 km/h 6.4 km/h 52 % 0.0 mm
06:25 22.2 °C 11.9 °C 1023.9 hPa ENE 4.8 km/h 6.4 km/h 52 % 0.0 mm
06:35 22.8 °C 12.1 °C 1023.9 hPa ESE 4.8 km/h 6.4 km/h 51 % 0.0 mm
06:45 22.8 °C 11.8 °C 1023.9 hPa ESE 1.6 km/h 9.7 km/h 50 % 0.0 mm
06:55 23.1 °C 11.5 °C 1023.9 hPa East 8.0 km/h 8.0 km/h 48 % 0.0 mm
07:05 23.6 °C 11.9 °C 1023.9 hPa SE 4.8 km/h 8.0 km/h 48 % 0.0 mm
07:15 23.6 °C 11.9 °C 1023.9 hPa SE 3.2 km/h 8.0 km/h 48 % 0.0 mm
07:25 23.2 °C 11.3 °C 1022.9 hPa ESE 9.7 km/h 12.9 km/h 47 % 0.0 mm
12:33 23.6 °C 11.6 °C 1023.9 hPa West 9.3 km/h 9.3 km/h 47 % 0.0 mm
12:38 23.7 °C 11.4 °C 1023.9 hPa ENE 9.3 km/h 9.3 km/h 46 % 0.0 mm
12:43 23.7 °C 11.4 °C 1023.9 hPa NE 14.8 km/h 14.8 km/h 46 % 0.0 mm
12:48 23.4 °C 10.8 °C 1023.9 hPa SSE 11.1 km/h 11.1 km/h 45 % 0.0 mm
12:53 23.8 °C 11.5 °C 1023.9 hPa SSE 9.7 km/h 9.7 km/h 46 % 0.0 mm
12:58 23.7 °C 11.1 °C 1023.9 hPa ESE 14.8 km/h 14.8 km/h 45 % 0.0 mm
13:03 23.9 °C 11.2 °C 1023.9 hPa SE 7.4 km/h 7.4 km/h 45 % 0.0 mm
13:08 24.2 °C 11.2 °C 1023.9 hPa South 9.3 km/h 9.3 km/h 44 % 0.0 mm
13:13 24.6 °C 11.6 °C 1023.9 hPa SE 13.0 km/h 13.0 km/h 44 % 0.0 mm
13:18 23.8 °C 11.2 °C 1023.9 hPa ESE 11.9 km/h 11.9 km/h 45 % 0.0 mm
13:23 23.4 °C 10.8 °C 1023.9 hPa South 11.1 km/h 11.1 km/h 45 % 0.0 mm
13:28 23.6 °C 10.9 °C 1023.9 hPa ESE 11.1 km/h 11.1 km/h 45 % 0.0 mm
13:33 23.7 °C 11.1 °C 1023.9 hPa ESE 20.6 km/h 20.6 km/h 45 % 0.0 mm
13:38 23.5 °C 10.9 °C 1023.9 hPa ESE 18.5 km/h 18.5 km/h 45 % 0.0 mm
13:43 23.3 °C 10.7 °C 1023.9 hPa SE 22.2 km/h 22.2 km/h 45 % 0.0 mm
13:48 23.4 °C 10.8 °C 1023.9 hPa ESE 18.0 km/h 18.0 km/h 45 % 0.0 mm
13:53 23.7 °C 11.1 °C 1023.9 hPa ESE 13.0 km/h 13.0 km/h 45 % 0.0 mm
13:58 23.9 °C 11.2 °C 1023.9 hPa ESE 14.0 km/h 14.0 km/h 45 % 0.0 mm
14:03 23.6 °C 11.3 °C 1023.9 hPa NNE 10.3 km/h 10.3 km/h 46 % 0.0 mm
14:08 23.0 °C 10.4 °C 1023.9 hPa ESE 14.8 km/h 14.8 km/h 45 % 0.0 mm
14:13 23.0 °C 10.8 °C 1023.9 hPa ESE 14.8 km/h 14.8 km/h 46 % 0.0 mm
14:18 23.3 °C 11.0 °C 1023.9 hPa ENE 13.0 km/h 13.0 km/h 46 % 0.0 mm
14:23 23.3 °C 11.0 °C 1023.9 hPa SSW 14.8 km/h 14.8 km/h 46 % 0.0 mm
14:28 23.2 °C 10.9 °C 1023.9 hPa ESE 13.0 km/h 13.0 km/h 46 % 0.0 mm
14:33 23.2 °C 10.9 °C 1023.9 hPa SE 16.1 km/h 16.1 km/h 46 % 0.0 mm
14:38 23.2 °C 10.9 °C 1023.9 hPa ESE 9.3 km/h 9.3 km/h 46 % 0.0 mm
14:43 23.1 °C 10.8 °C 1023.9 hPa ESE 13.0 km/h 13.0 km/h 46 % 0.0 mm
14:48 23.1 °C 10.8 °C 1023.9 hPa SE 9.7 km/h 9.7 km/h 46 % 0.0 mm
14:53 22.9 °C 10.7 °C 1023.9 hPa NE 9.3 km/h 9.3 km/h 46 % 0.0 mm
14:58 22.7 °C 10.5 °C 1023.9 hPa ESE 14.8 km/h 14.8 km/h 46 % 0.0 mm
15:03 22.7 °C 10.8 °C 1023.9 hPa NE 13.0 km/h 13.0 km/h 47 % 0.0 mm
15:08 22.9 °C 10.7 °C 1023.9 hPa SE 13.0 km/h 13.0 km/h 46 % 0.0 mm
15:13 22.8 °C 10.6 °C 1023.9 hPa SE 13.0 km/h 13.0 km/h 46 % 0.0 mm
15:18 23.0 °C 10.4 °C 1023.9 hPa ENE 13.0 km/h 13.0 km/h 45 % 0.0 mm
15:23 23.2 °C 10.6 °C 1023.9 hPa ENE 16.7 km/h 16.7 km/h 45 % 0.0 mm
15:28 23.4 °C 11.1 °C 1022.9 hPa ENE 14.8 km/h 14.8 km/h 46 % 0.0 mm
15:33 23.5 °C 11.2 °C 1022.9 hPa ENE 11.1 km/h 11.1 km/h 46 % 0.0 mm
15:38 23.3 °C 10.7 °C 1022.9 hPa ESE 14.8 km/h 14.8 km/h 45 % 0.0 mm
15:43 23.2 °C 10.3 °C 1022.9 hPa ESE 16.7 km/h 16.7 km/h 44 % 0.0 mm
15:48 23.5 °C 10.6 °C 1022.9 hPa East 11.4 km/h 11.4 km/h 44 % 0.0 mm
15:53 23.7 °C 10.7 °C 1022.9 hPa East 12.6 km/h 12.6 km/h 44 % 0.0 mm
15:58 23.7 °C 10.7 °C 1022.9 hPa ESE 13.0 km/h 13.0 km/h 44 % 0.0 mm
16:03 23.6 °C 10.6 °C 1022.9 hPa NE 13.0 km/h 13.0 km/h 44 % 0.0 mm
16:08 23.7 °C 10.4 °C 1022.9 hPa ESE 13.0 km/h 13.0 km/h 43 % 0.0 mm
16:13 23.8 °C 10.4 °C 1022.9 hPa SSE 10.0 km/h 10.0 km/h 43 % 0.0 mm
16:18 24.1 °C 11.1 °C 1022.9 hPa ESE 10.0 km/h 10.0 km/h 44 % 0.0 mm
16:23 24.1 °C 10.7 °C 1022.9 hPa East 14.8 km/h 14.8 km/h 43 % 0.0 mm
16:28 24.1 °C 10.7 °C 1022.9 hPa East 14.0 km/h 14.0 km/h 43 % 0.0 mm
16:33 23.9 °C 10.6 °C 1022.9 hPa ENE 16.7 km/h 16.7 km/h 43 % 0.0 mm
16:38 24.0 °C 11.0 °C 1022.9 hPa ENE 11.1 km/h 11.1 km/h 44 % 0.0 mm
16:43 23.7 °C 10.4 °C 1022.9 hPa ENE 18.5 km/h 18.5 km/h 43 % 0.0 mm
16:48 24.0 °C 10.7 °C 1022.9 hPa South 9.3 km/h 9.3 km/h 43 % 0.0 mm
16:53 24.0 °C 10.7 °C 1022.9 hPa ENE 14.8 km/h 14.8 km/h 43 % 0.0 mm
16:58 24.0 °C 10.7 °C 1021.9 hPa ESE 16.4 km/h 16.4 km/h 43 % 0.0 mm
17:03 23.9 °C 10.6 °C 1021.9 hPa ESE 24.1 km/h 24.1 km/h 43 % 0.0 mm
17:08 23.9 °C 10.6 °C 1021.9 hPa ESE 16.7 km/h 16.7 km/h 43 % 0.0 mm
17:13 23.8 °C 10.1 °C 1021.9 hPa ENE 18.5 km/h 18.5 km/h 42 % 0.0 mm
17:18 23.8 °C 10.4 °C 1021.9 hPa ESE 11.1 km/h 11.1 km/h 43 % 0.0 mm
17:23 23.7 °C 10.0 °C 1021.9 hPa ENE 14.8 km/h 14.8 km/h 42 % 0.0 mm
17:28 23.7 °C 10.4 °C 1021.9 hPa ESE 14.8 km/h 14.8 km/h 43 % 0.0 mm
17:33 23.7 °C 10.4 °C 1021.9 hPa ESE 11.1 km/h 11.1 km/h 43 % 0.0 mm
17:38 23.7 °C 10.0 °C 1021.9 hPa East 13.0 km/h 13.0 km/h 42 % 0.0 mm
17:43 23.5 °C 9.8 °C 1022.9 hPa ESE 18.5 km/h 18.5 km/h 42 % 0.0 mm
17:48 23.4 °C 10.1 °C 1022.9 hPa ENE 14.8 km/h 14.8 km/h 43 % 0.0 mm
17:53 23.5 °C 10.2 °C 1022.9 hPa ESE 14.8 km/h 14.8 km/h 43 % 0.0 mm
17:58 23.3 °C 10.0 °C 1022.9 hPa ESE 15.8 km/h 15.8 km/h 43 % 0.0 mm
18:03 23.2 °C 9.9 °C 1022.9 hPa ESE 13.0 km/h 13.0 km/h 43 % 0.0 mm
18:08 23.0 °C 9.7 °C 1022.9 hPa ESE 16.7 km/h 16.7 km/h 43 % 0.0 mm
18:13 22.8 °C 9.9 °C 1021.9 hPa SSE 20.4 km/h 20.4 km/h 44 % 0.0 mm
18:18 22.7 °C 10.2 °C 1021.9 hPa East 16.7 km/h 16.7 km/h 45 % 0.0 mm
18:23 22.7 °C 9.8 °C 1021.9 hPa NE 10.0 km/h 10.0 km/h 44 % 0.0 mm
18:28 22.7 °C 10.2 °C 1022.9 hPa ESE 13.0 km/h 13.0 km/h 45 % 0.0 mm
18:33 22.3 °C 9.8 °C 1022.9 hPa SE 16.7 km/h 16.7 km/h 45 % 0.0 mm
18:38 22.3 °C 10.1 °C 1022.9 hPa ESE 13.0 km/h 13.0 km/h 46 % 0.0 mm
18:43 22.3 °C 9.8 °C 1021.9 hPa ENE 11.1 km/h 11.1 km/h 45 % 0.0 mm
18:48 22.2 °C 10.0 °C 1021.9 hPa ESE 14.8 km/h 14.8 km/h 46 % 0.0 mm
18:53 22.2 °C 10.0 °C 1021.9 hPa ESE 14.8 km/h 14.8 km/h 46 % 0.0 mm
18:58 22.1 °C 10.3 °C 1022.9 hPa ESE 14.8 km/h 14.8 km/h 47 % 0.0 mm
19:03 22.0 °C 10.2 °C 1022.9 hPa East 9.3 km/h 9.3 km/h 47 % 0.0 mm
19:08 21.8 °C 10.3 °C 1022.9 hPa East 9.3 km/h 9.3 km/h 48 % 0.0 mm
19:13 21.8 °C 10.3 °C 1022.9 hPa ENE 7.4 km/h 7.4 km/h 48 % 0.0 mm
19:15 17.0 °C 10.1 °C 1026.0 hPa Calm   1.6 km/h 64 % 0.0 mm
19:18 21.8 °C 10.3 °C 1022.9 hPa ENE 7.4 km/h 7.4 km/h 48 % 0.0 mm
19:23 21.9 °C 10.4 °C 1022.9 hPa ENE 9.3 km/h 9.3 km/h 48 % 0.0 mm
19:25 16.8 °C 10.2 °C 1026.0 hPa Calm     65 % 0.0 mm
19:28 21.9 °C 10.4 °C 1022.9 hPa East 5.6 km/h 5.6 km/h 48 % 0.0 mm
19:33 21.8 °C 10.3 °C 1022.9 hPa East 7.4 km/h 7.4 km/h 48 % 0.0 mm
19:35 16.7 °C 10.3 °C 1026.0 hPa Calm     66 % 0.0 mm
19:38 21.7 °C 10.2 °C 1022.9 hPa ESE 9.7 km/h 9.7 km/h 48 % 0.0 mm
19:43 21.8 °C 10.3 °C 1022.9 hPa ESE 5.6 km/h 6.1 km/h 48 % 0.0 mm
19:45 16.4 °C 10.1 °C 1026.0 hPa Calm     66 % 0.0 mm
19:48 21.7 °C 10.2 °C 1022.9 hPa ENE 5.6 km/h 5.6 km/h 48 % 0.0 mm
19:49 21.7 °C 10.2 °C 1022.9 hPa ENE 5.6 km/h 5.6 km/h 48 % 0.0 mm
19:54 21.6 °C 10.1 °C 1022.9 hPa ESE 7.4 km/h 7.4 km/h 48 % 0.0 mm
19:55 16.3 °C 10.2 °C 1026.0 hPa Calm     67 % 0.0 mm
19:59 21.6 °C 10.4 °C 1022.9 hPa East 7.4 km/h 7.4 km/h 49 % 0.0 mm
20:04 21.5 °C 10.0 °C 1022.9 hPa ESE 7.4 km/h 7.4 km/h 48 % 0.0 mm
20:05 16.2 °C 10.1 °C 1026.0 hPa NW 1.6 km/h 3.2 km/h 67 % 0.0 mm
20:09 21.5 °C 10.0 °C 1022.9 hPa East 5.6 km/h 5.8 km/h 48 % 0.0 mm
20:14 21.3 °C 10.2 °C 1022.9 hPa NE 5.6 km/h 5.6 km/h 49 % 0.0 mm
20:15 16.1 °C 10.2 °C 1024.9 hPa Calm   3.2 km/h 68 % 0.0 mm
20:19 21.2 °C 10.1 °C 1022.9 hPa ENE 7.4 km/h 7.4 km/h 49 % 0.0 mm
20:24 21.0 °C 9.9 °C 1022.9 hPa ESE 7.4 km/h 7.4 km/h 49 % 0.0 mm
20:25 16.1 °C 10.2 °C 1026.0 hPa Calm     68 % 0.0 mm
20:29 20.9 °C 10.1 °C 1023.9 hPa SE 5.6 km/h 6.4 km/h 50 % 0.0 mm
20:34 20.8 °C 10.0 °C 1023.9 hPa ESE 7.4 km/h 7.4 km/h 50 % 0.0 mm
20:35 16.0 °C 10.1 °C 1026.0 hPa WNW 1.6 km/h 3.2 km/h 68 % 0.0 mm
20:39 20.7 °C 9.9 °C 1023.9 hPa ESE 7.4 km/h 7.4 km/h 50 % 0.0 mm
20:44 20.6 °C 10.1 °C 1022.9 hPa East 6.1 km/h 6.1 km/h 51 % 0.0 mm
20:45 16.0 °C 10.1 °C 1027.0 hPa Calm   1.6 km/h 68 % 0.0 mm
20:49 20.5 °C 10.0 °C 1022.9 hPa ENE 3.7 km/h 3.7 km/h 51 % 0.0 mm
20:54 20.4 °C 9.9 °C 1022.9 hPa NE 3.7 km/h 3.7 km/h 51 % 0.0 mm
20:55 15.9 °C 10.0 °C 1026.0 hPa Calm   3.2 km/h 68 % 0.0 mm
20:59 20.3 °C 10.1 °C 1023.9 hPa ESE 7.4 km/h 7.4 km/h 52 % 0.0 mm
21:04 20.2 °C 10.0 °C 1023.9 hPa ENE 5.0 km/h 5.0 km/h 52 % 0.0 mm
21:05 15.4 °C 9.5 °C 1026.0 hPa West 1.6 km/h 3.2 km/h 68 % 0.0 mm
21:09 20.1 °C 9.9 °C 1023.9 hPa NNE 3.7 km/h 3.7 km/h 52 % 0.0 mm
21:14 20.0 °C 9.8 °C 1022.9 hPa NE 3.9 km/h 3.9 km/h 52 % 0.0 mm
21:15 14.9 °C 9.1 °C 1026.0 hPa WSW 3.2 km/h 3.2 km/h 68 % 0.0 mm
21:19 19.9 °C 10.1 °C 1022.9 hPa NE 4.7 km/h 4.7 km/h 53 % 0.0 mm
21:24 19.7 °C 9.8 °C 1022.9 hPa ENE 7.4 km/h 7.4 km/h 53 % 0.0 mm
21:25 14.9 °C 9.1 °C 1026.0 hPa SW 4.8 km/h 4.8 km/h 68 % 0.0 mm
21:29 19.6 °C 9.8 °C 1023.9 hPa NNE 3.7 km/h 3.7 km/h 53 % 0.0 mm
21:34 19.5 °C 9.7 °C 1023.9 hPa NE 1.9 km/h   53 % 0.0 mm
21:35 14.6 °C 9.0 °C 1026.0 hPa SW 3.2 km/h 4.8 km/h 69 % 0.0 mm
21:39 19.4 °C 9.8 °C 1023.9 hPa NNE 3.7 km/h 3.7 km/h 54 % 0.0 mm
21:44 19.4 °C 9.8 °C 1024.9 hPa NNW 1.9 km/h   54 % 0.0 mm
21:45 14.5 °C 9.3 °C 1026.0 hPa Calm   4.8 km/h 71 % 0.0 mm
21:49 19.3 °C 10.1 °C 1024.9 hPa Calm     55 % 0.0 mm
21:54 19.1 °C 9.8 °C 1024.9 hPa NNE 3.7 km/h 3.7 km/h 55 % 0.0 mm
21:55 14.5 °C 9.5 °C 1026.0 hPa Calm     72 % 0.0 mm
21:59 19.0 °C 9.8 °C 1026.0 hPa NNE 3.7 km/h 3.7 km/h 55 % 0.0 mm
22:04 18.9 °C 10.2 °C 1026.0 hPa Calm     57 % 0.0 mm
22:05 14.7 °C 9.7 °C 1026.0 hPa Calm   1.6 km/h 72 % 0.0 mm
22:09 18.8 °C 10.1 °C 1026.0 hPa NNE 3.7 km/h 3.7 km/h 57 % 0.0 mm
22:14 18.7 °C 10.0 °C 1024.9 hPa North 1.9 km/h   57 % 0.0 mm
22:15 14.7 °C 9.7 °C 1026.0 hPa Calm   1.6 km/h 72 % 0.0 mm
22:19 18.6 °C 10.2 °C 1024.9 hPa Calm     58 % 0.0 mm
22:24 18.5 °C 10.1 °C 1024.9 hPa Calm     58 % 0.0 mm
22:25 14.6 °C 9.6 °C 1026.0 hPa Calm     72 % 0.0 mm
22:29 18.4 °C 10.2 °C 1026.0 hPa North 4.7 km/h 4.7 km/h 59 % 0.0 mm
22:34 18.3 °C 10.2 °C 1026.0 hPa NNE 1.9 km/h 1.9 km/h 59 % 0.0 mm
22:35 14.6 °C 9.6 °C 1026.0 hPa Calm     72 % 0.0 mm
22:39 18.2 °C 10.3 °C 1026.0 hPa Calm     60 % 0.0 mm
22:44 18.1 °C 10.2 °C 1026.0 hPa Calm     60 % 0.0 mm
22:45 14.4 °C 9.4 °C 1026.0 hPa Calm   3.2 km/h 72 % 0.0 mm
22:49 18.0 °C 10.1 °C 1026.0 hPa NE 3.7 km/h 3.7 km/h 60 % 0.0 mm
22:54 18.0 °C 10.1 °C 1026.0 hPa Calm     60 % 0.0 mm
22:55 13.9 °C 8.9 °C 1026.0 hPa West 1.6 km/h 3.2 km/h 72 % 0.0 mm
22:59 17.9 °C 10.3 °C 1026.0 hPa NNE 1.4 km/h   61 % 0.0 mm
23:04 17.9 °C 10.3 °C 1026.0 hPa ENE 2.6 km/h 2.6 km/h 61 % 0.0 mm
23:05 13.8 °C 9.1 °C 1026.0 hPa Calm   1.6 km/h 73 % 0.0 mm
23:09 17.8 °C 10.2 °C 1026.0 hPa Calm     61 % 0.0 mm
23:14 17.7 °C 10.3 °C 1026.0 hPa NE 1.9 km/h   62 % 0.0 mm
23:15 13.9 °C 8.9 °C 1026.0 hPa SW 3.2 km/h 3.2 km/h 72 % 0.0 mm
23:19 17.6 °C 10.2 °C 1026.0 hPa Calm     62 % 0.0 mm
23:24 17.6 °C 10.2 °C 1026.0 hPa Calm     62 % 0.0 mm
23:25 13.8 °C 8.8 °C 1026.0 hPa SW 3.2 km/h 3.2 km/h 72 % 0.0 mm
23:29 17.5 °C 10.1 °C 1026.0 hPa Calm     62 % 0.0 mm
23:34 17.4 °C 10.1 °C 1026.0 hPa Calm     62 % 0.0 mm
23:35 13.8 °C 9.1 °C 1026.0 hPa WSW 3.2 km/h 3.2 km/h 73 % 0.0 mm
23:39 17.3 °C 10.2 °C 1026.0 hPa Calm     63 % 0.0 mm
23:44 17.3 °C 10.2 °C 1026.0 hPa Calm     63 % 0.0 mm
23:45 14.0 °C 9.2 °C 1026.0 hPa WSW 1.6 km/h 3.2 km/h 73 % 0.0 mm
23:49 17.3 °C 10.2 °C 1026.0 hPa Calm     63 % 0.0 mm
23:54 17.3 °C 10.2 °C 1026.0 hPa NNE 2.3 km/h 2.3 km/h 63 % 0.0 mm
23:55 14.1 °C 9.3 °C 1026.0 hPa WSW 1.6 km/h 3.2 km/h 73 % 0.0 mm
23:59 17.2 °C 10.1 °C 1026.0 hPa NNW 1.9 km/h   63 % 0.0 mm
Meteo Sesrovires
Elogis d' Weather Underground - 3.5 mb

Guio original per  Jim McMurry - jmcmurry@mwt.net Adaptat per a la plantilla per  Wim van der Kuil - Leuven-Template.eu

Trobareu la nostra informacio del temps tambe a:

Weather Underground

AWEKAS